Time;durP1;ratioP1;P1;durP2;ratioP2;P2;SDS_P1;SDS_P2;PMS_P1;PMS_P2;Temp;Humidity;BMP_temperature;BMP_pressure;BME280_temperature;BME280_humidity;BME280_pressure;Samples;Min_cycle;Max_cycle;Signal;HPM_P1;HPM_P2
2023/01/30 00:00:05;;;;;;;44.60;26.02;;;;;;;;;;1043625;28;20499;-78
2023/01/30 00:00:35;;;;;;;52.80;25.85;;;;;;;;;;1045750;28;20021;-78
2023/01/30 00:01:12;;;;;;;49.15;25.50;;;;;;;;;;1042607;28;20017;-78
2023/01/30 00:01:43;;;;;;;54.60;26.50;;;;;;;;;;1042453;28;20074;-78
2023/01/30 00:02:13;;;;;;;51.97;24.88;;;;;;;;;;1043903;28;20112;-78
2023/01/30 00:02:44;;;;;;;47.97;24.40;;;;;;;;;;1043210;28;20028;-78
2023/01/30 00:03:14;;;;;;;50.88;23.10;;;;;;;;;;1043303;28;20029;-78
2023/01/30 00:03:45;;;;;;;38.65;21.83;;;;;;;;;;1046559;28;20074;-77
2023/01/30 00:04:16;;;;;;;50.15;23.45;;;;;;;;;;1045731;28;20026;-77
2023/01/30 00:04:46;;;;;;;38.80;22.27;;;;;;;;;;1041990;28;20032;-77
2023/01/30 00:05:17;;;;;;;50.05;25.45;;;;;;;;;;1045929;28;20072;-78
2023/01/30 00:05:47;;;;;;;49.45;24.42;;;;;;;;;;1046270;28;20423;-78
2023/01/30 00:06:18;;;;;;;38.90;21.45;;;;;;;;;;1044853;28;20495;-78
2023/01/30 00:06:49;;;;;;;37.28;21.20;;;;;;;;;;1046251;28;20042;-78
2023/01/30 00:07:19;;;;;;;46.53;22.83;;;;;;;;;;1046887;28;20081;-78
2023/01/30 00:07:50;;;;;;;39.00;21.15;;;;;;;;;;1047333;28;20025;-78
2023/01/30 00:08:21;;;;;;;43.20;21.40;;;;;;;;;;1043720;28;20023;-78
2023/01/30 00:08:51;;;;;;;46.90;24.85;;;;;;;;;;1045341;28;20061;-78
2023/01/30 00:09:22;;;;;;;44.47;22.40;;;;;;;;;;1045425;28;20035;-78
2023/01/30 00:09:52;;;;;;;37.58;19.05;;;;;;;;;;1045546;28;20031;-78
2023/01/30 00:10:23;;;;;;;44.22;21.08;;;;;;;;;;1050126;28;20090;-78
2023/01/30 00:10:53;;;;;;;42.42;21.80;;;;;;;;;;1045936;28;20503;-78
2023/01/30 00:11:24;;;;;;;42.53;23.08;;;;;;;;;;1045901;28;20046;-78
2023/01/30 00:11:54;;;;;;;46.00;22.58;;;;;;;;;;1045617;28;20017;-78
2023/01/30 00:12:25;;;;;;;45.10;22.20;;;;;;;;;;1043137;28;20021;-78
2023/01/30 00:12:55;;;;;;;40.47;19.05;;;;;;;;;;1046357;28;20020;-78
2023/01/30 00:13:26;;;;;;;33.38;18.73;;;;;;;;;;1045560;28;20035;-79
2023/01/30 00:13:57;;;;;;;40.20;19.60;;;;;;;;;;1046916;28;20020;-78
2023/01/30 00:14:27;;;;;;;45.55;25.08;;;;;;;;;;1041682;28;20021;-78
2023/01/30 00:14:58;;;;;;;41.30;21.33;;;;;;;;;;1045398;28;20020;-78
2023/01/30 00:15:28;;;;;;;43.50;20.42;;;;;;;;;;1046213;28;20070;-78
2023/01/30 00:15:59;;;;;;;45.30;23.67;;;;;;;;;;1045458;28;20119;-78
2023/01/30 00:16:29;;;;;;;49.92;23.00;;;;;;;;;;1046168;28;20013;-78
2023/01/30 00:17:00;;;;;;;42.30;17.92;;;;;;;;;;1041074;28;20056;-78
2023/01/30 00:17:30;;;;;;;46.95;20.80;;;;;;;;;;1040950;28;20112;-78
2023/01/30 00:18:01;;;;;;;42.78;19.60;;;;;;;;;;1040864;28;20041;-79
2023/01/30 00:18:31;;;;;;;48.30;18.30;;;;;;;;;;1040752;28;20110;-79
2023/01/30 00:19:02;;;;;;;32.58;17.17;;;;;;;;;;1046450;28;20058;-78
2023/01/30 00:19:32;;;;;;;33.10;18.23;;;;;;;;;;1044743;28;20108;-79
2023/01/30 00:20:03;;;;;;;32.17;15.05;;;;;;;;;;1043342;28;20733;-78
2023/01/30 00:20:34;;;;;;;30.45;18.20;;;;;;;;;;1046096;28;20491;-78
2023/01/30 00:21:05;;;;;;;30.42;18.77;;;;;;;;;;1044509;28;20120;-78
2023/01/30 00:21:36;;;;;;;34.55;17.25;;;;;;;;;;1046338;28;20033;-78
2023/01/30 00:22:06;;;;;;;31.17;18.02;;;;;;;;;;1040822;28;20017;-78
2023/01/30 00:22:37;;;;;;;28.55;16.00;;;;;;;;;;1041814;28;20115;-78
2023/01/30 00:23:07;;;;;;;28.25;18.38;;;;;;;;;;1040962;28;20478;-78
2023/01/30 00:23:38;;;;;;;36.72;18.50;;;;;;;;;;1045455;28;20111;-78
2023/01/30 00:24:09;;;;;;;31.55;19.52;;;;;;;;;;1049442;28;20030;-78
2023/01/30 00:24:39;;;;;;;34.50;19.45;;;;;;;;;;1050613;28;20020;-78
2023/01/30 00:25:10;;;;;;;40.92;20.80;;;;;;;;;;1044099;28;20029;-78
2023/01/30 00:25:44;;;;;;;43.38;19.30;;;;;;;;;;1046066;28;20083;-78
2023/01/30 00:26:14;;;;;;;38.30;20.33;;;;;;;;;;1043230;28;20025;-78
2023/01/30 00:26:45;;;;;;;49.45;24.23;;;;;;;;;;1043931;28;20020;-78
2023/01/30 00:27:15;;;;;;;48.33;22.08;;;;;;;;;;1047504;28;20020;-78
2023/01/30 00:27:46;;;;;;;40.95;20.33;;;;;;;;;;1045765;28;20480;-78
2023/01/30 00:28:16;;;;;;;39.00;20.60;;;;;;;;;;1049090;28;20032;-78
2023/01/30 00:28:47;;;;;;;44.35;21.65;;;;;;;;;;1050196;28;20048;-78
2023/01/30 00:29:17;;;;;;;36.83;18.75;;;;;;;;;;1050121;28;20063;-78
2023/01/30 00:29:48;;;;;;;38.38;19.40;;;;;;;;;;1045595;28;20112;-78
2023/01/30 00:30:19;;;;;;;49.17;21.90;;;;;;;;;;1045299;28;20028;-78
2023/01/30 00:30:50;;;;;;;40.20;18.65;;;;;;;;;;1043507;28;20029;-79
2023/01/30 00:31:20;;;;;;;36.63;20.27;;;;;;;;;;1039299;28;20017;-78
2023/01/30 00:31:51;;;;;;;52.05;22.23;;;;;;;;;;1044781;28;20016;-78
2023/01/30 00:32:25;;;;;;;37.22;17.95;;;;;;;;;;1045216;28;20117;-78
2023/01/30 00:32:56;;;;;;;42.08;19.92;;;;;;;;;;1045144;28;20029;-78
2023/01/30 00:33:27;;;;;;;33.45;19.02;;;;;;;;;;1049295;28;20016;-78
2023/01/30 00:33:57;;;;;;;49.40;21.98;;;;;;;;;;1050134;28;20587;-78
2023/01/30 00:34:28;;;;;;;38.42;21.13;;;;;;;;;;1050215;28;20113;-78
2023/01/30 00:34:59;;;;;;;34.65;19.10;;;;;;;;;;1047292;28;20074;-78
2023/01/30 00:35:29;;;;;;;43.63;19.05;;;;;;;;;;1044350;28;20116;-78
2023/01/30 00:36:00;;;;;;;53.15;23.00;;;;;;;;;;1045775;28;20021;-78
2023/01/30 00:36:31;;;;;;;44.28;21.75;;;;;;;;;;1044717;28;20093;-78
2023/01/30 00:37:01;;;;;;;42.10;21.70;;;;;;;;;;1044808;28;20021;-78
2023/01/30 00:37:32;;;;;;;51.47;21.23;;;;;;;;;;1045637;28;20024;-78
2023/01/30 00:38:02;;;;;;;46.47;22.80;;;;;;;;;;1051206;28;20051;-78
2023/01/30 00:38:33;;;;;;;41.70;18.30;;;;;;;;;;1050202;28;20099;-78
2023/01/30 00:39:03;;;;;;;44.05;18.88;;;;;;;;;;1051737;28;20118;-78
2023/01/30 00:39:34;;;;;;;52.47;21.77;;;;;;;;;;1050399;28;20023;-78
2023/01/30 00:40:05;;;;;;;39.53;18.10;;;;;;;;;;1045409;28;20032;-78
2023/01/30 00:40:35;;;;;;;41.83;20.60;;;;;;;;;;1045773;28;20056;-78
2023/01/30 00:41:06;;;;;;;43.53;20.58;;;;;;;;;;1044496;28;20127;-78
2023/01/30 00:47:21;;;;;;;43.25;21.35;;;;;;;;;;1049995;28;20081;-78
2023/01/30 00:47:52;;;;;;;44.38;21.33;;;;;;;;;;1045898;28;20020;-78
2023/01/30 00:48:22;;;;;;;49.75;24.30;;;;;;;;;;1045575;28;20115;-78
2023/01/30 00:48:53;;;;;;;43.22;23.70;;;;;;;;;;1046089;28;20085;-78
2023/01/30 00:49:23;;;;;;;43.75;22.23;;;;;;;;;;1045643;28;20032;-78
2023/01/30 00:49:54;;;;;;;36.50;18.88;;;;;;;;;;1041323;28;20052;-78
2023/01/30 00:50:41;;;;;;;33.83;17.98;;;;;;;;;;1040868;28;20572;-78
2023/01/30 00:51:11;;;;;;;44.90;21.33;;;;;;;;;;1040603;28;20029;-78
2023/01/30 00:51:42;;;;;;;39.70;19.38;;;;;;;;;;1043863;28;20052;-78
2023/01/30 00:52:12;;;;;;;35.13;19.10;;;;;;;;;;1043507;28;20025;-79
2023/01/30 00:52:43;;;;;;;42.15;19.20;;;;;;;;;;1044848;28;20023;-78
2023/01/30 00:53:14;;;;;;;33.90;19.15;;;;;;;;;;1045458;28;20066;-78
2023/01/30 00:53:45;;;;;;;39.47;17.10;;;;;;;;;;1044970;28;20020;-78
2023/01/30 00:54:15;;;;;;;37.55;18.88;;;;;;;;;;1045800;28;20434;-78
2023/01/30 00:54:46;;;;;;;38.88;20.48;;;;;;;;;;1041612;28;20438;-78
2023/01/30 00:55:17;;;;;;;41.05;23.30;;;;;;;;;;1046460;28;20094;-78
2023/01/30 00:55:49;;;;;;;37.85;19.88;;;;;;;;;;1045065;28;20027;-79
2023/01/30 00:56:19;;;;;;;48.40;23.15;;;;;;;;;;1049533;28;20158;-79
2023/01/30 00:56:50;;;;;;;39.60;19.35;;;;;;;;;;1049098;28;20019;-78
2023/01/30 00:57:20;;;;;;;41.25;20.45;;;;;;;;;;1045265;28;20485;-79
2023/01/30 00:57:51;;;;;;;33.03;18.27;;;;;;;;;;1042353;28;20024;-79
2023/01/30 00:58:22;;;;;;;31.17;16.77;;;;;;;;;;1043427;28;20017;-79
2023/01/30 00:58:52;;;;;;;26.60;16.48;;;;;;;;;;1043514;28;20116;-78
2023/01/30 00:59:23;;;;;;;25.52;14.57;;;;;;;;;;1045470;28;20033;-78
2023/01/30 00:59:53;;;;;;;27.23;12.95;;;;;;;;;;1045936;28;20021;-77
2023/01/30 01:00:24;;;;;;;30.67;17.23;;;;;;;;;;1040831;28;20012;-77
2023/01/30 01:00:55;;;;;;;32.20;15.07;;;;;;;;;;1041663;28;20016;-78
2023/01/30 01:01:25;;;;;;;28.50;15.45;;;;;;;;;;1041841;28;20120;-78
2023/01/30 01:01:56;;;;;;;29.20;16.23;;;;;;;;;;1037286;28;20018;-78
2023/01/30 01:02:26;;;;;;;27.23;16.05;;;;;;;;;;1039262;28;20144;-79
2023/01/30 01:02:57;;;;;;;34.53;15.95;;;;;;;;;;1039567;28;20010;-79
2023/01/30 01:03:27;;;;;;;25.45;14.63;;;;;;;;;;1037136;28;20025;-78
2023/01/30 01:03:58;;;;;;;26.15;14.93;;;;;;;;;;1042208;28;20056;-77
2023/01/30 01:04:29;;;;;;;26.90;16.73;;;;;;;;;;1044837;28;20032;-78
2023/01/30 01:04:59;;;;;;;23.20;14.00;;;;;;;;;;1044957;28;20025;-77
2023/01/30 01:05:30;;;;;;;40.95;18.63;;;;;;;;;;1045427;28;20025;-78
2023/01/30 01:06:00;;;;;;;44.90;21.08;;;;;;;;;;1044705;28;20579;-78
2023/01/30 01:06:31;;;;;;;38.97;22.30;;;;;;;;;;1045198;28;20657;-78
2023/01/30 01:07:02;;;;;;;39.15;18.83;;;;;;;;;;1046270;28;20054;-77
2023/01/30 01:07:32;;;;;;;46.20;22.20;;;;;;;;;;1043451;28;20017;-78
2023/01/30 01:08:03;;;;;;;33.13;18.25;;;;;;;;;;1039041;28;20408;-78
2023/01/30 01:08:33;;;;;;;31.58;19.17;;;;;;;;;;1038935;28;20030;-77
2023/01/30 01:09:04;;;;;;;41.13;21.88;;;;;;;;;;1043469;28;20021;-78
2023/01/30 01:09:35;;;;;;;37.67;19.55;;;;;;;;;;1041308;28;20505;-77
2023/01/30 01:10:06;;;;;;;42.72;20.95;;;;;;;;;;1044316;28;20021;-77
2023/01/30 01:10:37;;;;;;;35.75;17.38;;;;;;;;;;1045695;28;20066;-78
2023/01/30 01:11:07;;;;;;;39.35;20.63;;;;;;;;;;1045817;28;20020;-77
2023/01/30 01:11:38;;;;;;;43.35;20.58;;;;;;;;;;1045738;28;20620;-77
2023/01/30 01:12:08;;;;;;;38.63;20.15;;;;;;;;;;1045599;28;20013;-78
2023/01/30 01:12:39;;;;;;;46.47;20.73;;;;;;;;;;1042735;28;20021;-78
2023/01/30 01:13:10;;;;;;;34.33;20.85;;;;;;;;;;1043417;28;20040;-78
2023/01/30 01:13:40;;;;;;;44.47;21.58;;;;;;;;;;1043185;28;20021;-78
2023/01/30 01:14:11;;;;;;;42.00;21.02;;;;;;;;;;1045219;28;20032;-78
2023/01/30 01:14:41;;;;;;;37.15;20.58;;;;;;;;;;1043225;28;20017;-78
2023/01/30 01:15:12;;;;;;;44.22;20.48;;;;;;;;;;1043474;28;20459;-78
2023/01/30 01:15:43;;;;;;;49.67;23.35;;;;;;;;;;1042084;28;20044;-78
2023/01/30 01:16:13;;;;;;;42.65;21.38;;;;;;;;;;1045398;28;20078;-78
2023/01/30 01:16:44;;;;;;;39.67;21.17;;;;;;;;;;1046812;28;20012;-78
2023/01/30 01:17:14;;;;;;;40.78;22.40;;;;;;;;;;1045966;28;20100;-77
2023/01/30 01:17:45;;;;;;;38.45;21.17;;;;;;;;;;1044649;28;20025;-78
2023/01/30 01:18:15;;;;;;;33.20;20.63;;;;;;;;;;1043389;28;20016;-77
2023/01/30 01:18:46;;;;;;;43.92;21.55;;;;;;;;;;1044208;28;20039;-77
2023/01/30 01:19:17;;;;;;;36.65;20.67;;;;;;;;;;1045058;28;20025;-77
2023/01/30 01:19:47;;;;;;;51.17;21.50;;;;;;;;;;1045886;28;20025;-76
2023/01/30 01:20:18;;;;;;;42.95;19.15;;;;;;;;;;1041220;28;20036;-77
2023/01/30 01:20:49;;;;;;;44.20;20.52;;;;;;;;;;1041496;28;20041;-77
2023/01/30 01:21:21;;;;;;;44.33;20.92;;;;;;;;;;1041111;28;20066;-77
2023/01/30 01:21:51;;;;;;;42.13;17.83;;;;;;;;;;1041188;28;20065;-79
2023/01/30 01:22:22;;;;;;;29.45;17.20;;;;;;;;;;1044968;28;20504;-79
2023/01/30 01:22:54;;;;;;;36.20;17.20;;;;;;;;;;1045100;28;20799;-79
2023/01/30 01:23:26;;;;;;;31.67;15.68;;;;;;;;;;1042778;28;20078;-79
2023/01/30 01:23:58;;;;;;;35.78;18.23;;;;;;;;;;1044960;28;20107;-79
2023/01/30 01:24:28;;;;;;;39.95;17.10;;;;;;;;;;1044851;28;20035;-80
2023/01/30 01:24:59;;;;;;;37.10;21.25;;;;;;;;;;1045699;28;20052;-78
2023/01/30 01:25:29;;;;;;;38.58;20.08;;;;;;;;;;1045966;28;20022;-78
2023/01/30 01:26:01;;;;;;;36.60;19.92;;;;;;;;;;1042331;28;20096;-79
2023/01/30 01:26:32;;;;;;;42.35;20.67;;;;;;;;;;1041854;28;20104;-78
2023/01/30 01:27:02;;;;;;;40.40;19.55;;;;;;;;;;1042968;28;20025;-79
2023/01/30 01:27:33;;;;;;;45.28;21.35;;;;;;;;;;1045009;28;20023;-79
2023/01/30 01:28:03;;;;;;;49.78;22.40;;;;;;;;;;1049981;28;20032;-78
2023/01/30 01:28:34;;;;;;;45.50;21.42;;;;;;;;;;1049110;28;20028;-78
2023/01/30 01:29:05;;;;;;;59.58;26.13;;;;;;;;;;1045130;28;20383;-78
2023/01/30 01:29:35;;;;;;;45.33;24.92;;;;;;;;;;1042649;28;20521;-79
2023/01/30 01:30:06;;;;;;;50.05;24.10;;;;;;;;;;1038832;28;20468;-79
2023/01/30 01:30:37;;;;;;;50.45;24.55;;;;;;;;;;1035759;28;20539;-79
2023/01/30 01:31:09;;;;;;;54.47;24.02;;;;;;;;;;1041116;23;20041;-79
2023/01/30 01:31:39;;;;;;;52.67;23.80;;;;;;;;;;1037582;28;20048;-79
2023/01/30 01:32:10;;;;;;;45.95;23.98;;;;;;;;;;1041898;28;20029;-78
2023/01/30 01:32:41;;;;;;;51.05;25.15;;;;;;;;;;1047749;28;20036;-78
2023/01/30 01:33:11;;;;;;;52.90;23.90;;;;;;;;;;1046300;28;20539;-79
2023/01/30 01:33:42;;;;;;;50.20;22.75;;;;;;;;;;1043118;28;20438;-78
2023/01/30 01:34:13;;;;;;;38.97;20.10;;;;;;;;;;1043110;28;20485;-78
2023/01/30 01:34:44;;;;;;;37.13;20.27;;;;;;;;;;1042542;28;20036;-78
2023/01/30 01:35:14;;;;;;;43.05;22.13;;;;;;;;;;1038342;28;20565;-78
2023/01/30 01:35:50;;;;;;;32.70;18.27;;;;;;;;;;1040394;28;20439;-76
2023/01/30 01:36:21;;;;;;;45.20;18.48;;;;;;;;;;1034117;28;20023;-76
2023/01/30 01:36:51;;;;;;;39.45;19.13;;;;;;;;;;1033444;28;20033;-78
2023/01/30 01:37:22;;;;;;;34.60;19.75;;;;;;;;;;1035101;28;20041;-78
2023/01/30 01:37:53;;;;;;;35.65;19.02;;;;;;;;;;1037519;28;20029;-78
2023/01/30 01:38:23;;;;;;;29.40;17.67;;;;;;;;;;1040779;28;20127;-78
2023/01/30 01:38:54;;;;;;;35.78;19.40;;;;;;;;;;1041054;28;20521;-78
2023/01/30 01:41:00;;;;;;;29.67;18.02;;;;;;;;;;1037849;28;20071;-77
2023/01/30 01:41:06;;;;;;;54.80;23.98;;;;;;;;;;1043830;28;20360;-77
2023/01/30 01:41:37;;;;;;;72.05;28.98;;;;;;;;;;1042120;28;20028;-77
2023/01/30 01:42:08;;;;;;;53.42;24.98;;;;;;;;;;1042793;28;20025;-77
2023/01/30 01:42:39;;;;;;;56.10;25.95;;;;;;;;;;1042784;28;20028;-77
2023/01/30 01:43:21;;;;;;;55.10;26.92;;;;;;;;;;1042349;28;20048;-77
2023/01/30 01:44:05;;;;;;;62.47;28.00;;;;;;;;;;1047294;28;20115;-77
2023/01/30 01:44:55;;;;;;;57.22;24.70;;;;;;;;;;1042943;28;20025;-77
2023/01/30 01:45:26;;;;;;;47.10;24.05;;;;;;;;;;1042268;28;20024;-77
2023/01/30 01:46:09;;;;;;;60.28;26.60;;;;;;;;;;1042344;28;20025;-78
2023/01/30 01:46:39;;;;;;;45.72;23.67;;;;;;;;;;1043212;28;20012;-78
2023/01/30 01:47:10;;;;;;;46.90;23.50;;;;;;;;;;1040042;28;20040;-78
2023/01/30 01:47:46;;;;;;;58.75;26.98;;;;;;;;;;1039914;28;20029;-78
2023/01/30 01:48:25;;;;;;;45.08;23.90;;;;;;;;;;1041635;28;20112;-78
2023/01/30 01:48:58;;;;;;;36.42;19.63;;;;;;;;;;1041714;28;21260;-78
2023/01/30 01:49:32;;;;;;;41.92;18.40;;;;;;;;;;1042331;28;20033;-78
2023/01/30 01:50:04;;;;;;;35.17;19.77;;;;;;;;;;1042436;28;20027;-78
2023/01/30 01:50:37;;;;;;;28.95;15.43;;;;;;;;;;1043807;28;20096;-78
2023/01/30 01:51:10;;;;;;;34.67;17.25;;;;;;;;;;1038804;28;20069;-78
2023/01/30 01:51:51;;;;;;;33.22;16.35;;;;;;;;;;1039256;28;20032;-78
2023/01/30 01:52:22;;;;;;;33.63;16.92;;;;;;;;;;1036965;28;20029;-78
2023/01/30 01:52:55;;;;;;;40.35;20.25;;;;;;;;;;1040532;28;20120;-78
2023/01/30 01:53:29;;;;;;;28.48;16.00;;;;;;;;;;1042430;28;20052;-79
2023/01/30 01:54:08;;;;;;;33.42;17.33;;;;;;;;;;1043011;28;20503;-79
2023/01/30 01:54:50;;;;;;;33.75;16.10;;;;;;;;;;1043487;28;20071;-79
2023/01/30 01:55:21;;;;;;;33.25;17.95;;;;;;;;;;1046063;28;20058;-78
2023/01/30 01:55:53;;;;;;;28.02;15.20;;;;;;;;;;1047820;28;20024;-79
2023/01/30 01:56:24;;;;;;;33.95;17.73;;;;;;;;;;1047689;28;20107;-78
2023/01/30 01:56:55;;;;;;;28.40;16.80;;;;;;;;;;1042913;28;20029;-78
2023/01/30 01:57:31;;;;;;;34.80;19.15;;;;;;;;;;1042858;28;21074;-78
2023/01/30 01:58:10;;;;;;;42.15;18.73;;;;;;;;;;1042293;28;20125;-78
2023/01/30 01:58:44;;;;;;;30.48;16.40;;;;;;;;;;1040395;28;20040;-78
2023/01/30 01:59:19;;;;;;;34.00;18.20;;;;;;;;;;1037667;28;20029;-79
2023/01/30 01:59:56;;;;;;;36.08;17.88;;;;;;;;;;1039902;28;20038;-78
2023/01/30 02:00:27;;;;;;;34.30;20.55;;;;;;;;;;1043377;28;20030;-79
2023/01/30 02:00:58;;;;;;;39.08;19.70;;;;;;;;;;1044886;28;20067;-79
2023/01/30 02:01:30;;;;;;;35.55;19.40;;;;;;;;;;1043452;28;20025;-78
2023/01/30 02:02:04;;;;;;;40.03;21.90;;;;;;;;;;1038519;28;20485;-78
2023/01/30 02:02:35;;;;;;;42.55;20.55;;;;;;;;;;1038333;28;20120;-78
2023/01/30 02:03:08;;;;;;;36.67;20.60;;;;;;;;;;1039551;28;20059;-78
2023/01/30 02:03:41;;;;;;;43.63;22.83;;;;;;;;;;1034260;28;20121;-78
2023/01/30 02:04:12;;;;;;;42.70;22.77;;;;;;;;;;1038170;28;20018;-78
2023/01/30 02:05:05;;;;;;;52.03;21.65;;;;;;;;;;1038256;28;20033;-77
2023/01/30 02:05:39;;;;;;;47.80;21.92;;;;;;;;;;1041282;28;20370;-78
2023/01/30 02:06:10;;;;;;;59.88;28.63;;;;;;;;;;1043142;28;20508;-80
2023/01/30 02:06:42;;;;;;;88.53;37.75;;;;;;;;;;1047425;28;20020;-79
2023/01/30 02:07:15;;;;;;;75.60;35.60;;;;;;;;;;1038249;28;20049;-78
2023/01/30 02:07:59;;;;;;;68.18;31.13;;;;;;;;;;1037396;28;20579;-78
2023/01/30 02:08:35;;;;;;;40.50;22.85;;;;;;;;;;1037528;28;20047;-77
2023/01/30 02:09:09;;;;;;;57.45;26.85;;;;;;;;;;1043941;28;20025;-77
2023/01/30 02:09:43;;;;;;;49.20;25.17;;;;;;;;;;1041713;28;20025;-78
2023/01/30 02:10:18;;;;;;;39.28;21.45;;;;;;;;;;1041759;28;20025;-78
2023/01/30 02:11:01;;;;;;;42.55;21.73;;;;;;;;;;1036789;28;20029;-78
2023/01/30 02:11:41;;;;;;;46.55;20.88;;;;;;;;;;1041491;28;20565;-78
2023/01/30 02:12:13;;;;;;;41.20;20.33;;;;;;;;;;1041854;28;20033;-76
2023/01/30 02:12:44;;;;;;;42.42;20.25;;;;;;;;;;1041570;28;20032;-77
2023/01/30 02:13:15;;;;;;;34.45;18.50;;;;;;;;;;1039624;28;20519;-77
2023/01/30 02:14:16;;;;;;;39.97;19.57;;;;;;;;;;1041399;23;20163;-77
2023/01/30 02:14:48;;;;;;;29.40;15.55;;;;;;;;;;1044635;28;20412;-77
2023/01/30 02:15:19;;;;;;;37.33;20.50;;;;;;;;;;1048709;28;20036;-77
2023/01/30 02:15:50;;;;;;;31.80;16.63;;;;;;;;;;1047553;28;20032;-79
2023/01/30 02:16:23;;;;;;;36.25;19.48;;;;;;;;;;1047111;28;20039;-78
2023/01/30 02:16:54;;;;;;;31.95;17.65;;;;;;;;;;1045216;28;20555;-77
2023/01/30 02:17:35;;;;;;;43.83;20.10;;;;;;;;;;1043521;28;20021;-78
2023/01/30 02:18:05;;;;;;;44.30;19.73;;;;;;;;;;1043294;28;20051;-78
2023/01/30 02:18:37;;;;;;;49.15;22.10;;;;;;;;;;1037173;28;20025;-78
2023/01/30 02:19:17;;;;;;;41.80;20.42;;;;;;;;;;1039467;28;20025;-78
2023/01/30 02:20:06;;;;;;;41.67;19.15;;;;;;;;;;1041671;28;20064;-77
2023/01/30 02:20:55;;;;;;;44.50;19.73;;;;;;;;;;1048370;28;20193;-78
2023/01/30 02:21:40;;;;;;;33.63;18.25;;;;;;;;;;1047590;28;20135;-78
2023/01/30 02:22:14;;;;;;;48.88;22.40;;;;;;;;;;1048517;28;20012;-78
2023/01/30 02:22:48;;;;;;;47.20;20.70;;;;;;;;;;1049177;28;20074;-78
2023/01/30 02:23:37;;;;;;;39.00;20.55;;;;;;;;;;1050215;28;20510;-78
2023/01/30 02:24:20;;;;;;;38.88;21.38;;;;;;;;;;1042845;28;20098;-77
2023/01/30 02:24:50;;;;;;;38.80;20.67;;;;;;;;;;1044261;28;20029;-77
2023/01/30 02:25:29;;;;;;;44.63;21.88;;;;;;;;;;1043862;28;20090;-77
2023/01/30 02:26:11;;;;;;;36.15;20.38;;;;;;;;;;1041181;28;20112;-76
2023/01/30 02:26:53;;;;;;;52.08;20.35;;;;;;;;;;1044264;28;20528;-77
2023/01/30 02:27:33;;;;;;;44.67;21.20;;;;;;;;;;1045100;28;20025;-77
2023/01/30 02:28:07;;;;;;;49.22;22.58;;;;;;;;;;1043174;28;20106;-78
2023/01/30 02:28:37;;;;;;;44.97;21.38;;;;;;;;;;1041338;28;20078;-77
2023/01/30 02:29:17;;;;;;;38.65;19.90;;;;;;;;;;1042829;28;20083;-78
2023/01/30 02:29:48;;;;;;;44.25;22.05;;;;;;;;;;1042055;28;20025;-78
2023/01/30 02:30:21;;;;;;;52.03;24.23;;;;;;;;;;1045479;28;20029;-78
2023/01/30 02:31:04;;;;;;;52.95;23.27;;;;;;;;;;1043470;28;20067;-78
2023/01/30 02:31:46;;;;;;;55.35;23.77;;;;;;;;;;1026665;28;20025;-78
2023/01/30 02:32:29;;;;;;;56.42;27.50;;;;;;;;;;1040267;28;20029;-78
2023/01/30 02:33:21;;;;;;;50.80;22.65;;;;;;;;;;1041097;28;20029;-78
2023/01/30 02:33:54;;;;;;;48.08;22.35;;;;;;;;;;1040077;28;20104;-77
2023/01/30 02:34:33;;;;;;;51.13;23.92;;;;;;;;;;1042991;28;20028;-78
2023/01/30 02:35:22;;;;;;;79.78;25.63;;;;;;;;;;1047964;28;20031;-77
2023/01/30 02:35:59;;;;;;;50.67;25.08;;;;;;;;;;1046251;28;20442;-78
2023/01/30 02:36:35;;;;;;;45.45;24.17;;;;;;;;;;1043299;28;20021;-78
2023/01/30 02:37:15;;;;;;;47.22;24.98;;;;;;;;;;1041978;28;20025;-78
2023/01/30 02:38:14;;;;;;;56.70;26.02;;;;;;;;;;1039862;28;20094;-78
2023/01/30 02:38:51;;;;;;;50.65;25.75;;;;;;;;;;1028941;28;20189;-78
2023/01/30 02:39:25;;;;;;;67.90;29.05;;;;;;;;;;1044707;28;20453;-78
2023/01/30 02:40:15;;;;;;;66.10;30.50;;;;;;;;;;1049748;23;20021;-78
2023/01/30 02:40:45;;;;;;;;;;;;;;;;;;1041501;28;20032;-79
2023/01/30 02:41:16;;;;;;;73.90;31.30;;;;;;;;;;1042057;28;19909;-79
2023/01/30 02:41:55;;;;;;;71.57;30.02;;;;;;;;;;1041490;28;20456;-79
2023/01/30 02:42:28;;;;;;;62.40;30.80;;;;;;;;;;1042356;28;20021;-78
2023/01/30 02:42:59;;;;;;;81.88;32.53;;;;;;;;;;1040139;28;20168;-79
2023/01/30 02:43:45;;;;;;;80.38;33.85;;;;;;;;;;1042849;28;20106;-78
2023/01/30 02:44:35;;;;;;;110.22;34.17;;;;;;;;;;1041101;28;20052;-79
2023/01/30 02:45:11;;;;;;;71.13;30.90;;;;;;;;;;1038250;28;20609;-78
2023/01/30 02:45:47;;;;;;;75.60;32.60;;;;;;;;;;1037000;28;20584;-77
2023/01/30 02:46:21;;;;;;;78.53;33.70;;;;;;;;;;1038389;28;20029;-78
2023/01/30 02:47:17;;;;;;;73.28;33.25;;;;;;;;;;1037683;28;20017;-78
2023/01/30 02:47:54;;;;;;;64.05;32.38;;;;;;;;;;1022879;29;20043;-77
2023/01/30 02:48:33;;;;;;;68.40;30.70;;;;;;;;;;1025465;28;20019;-77
2023/01/30 02:49:10;;;;;;;74.90;30.05;;;;;;;;;;1033970;28;20017;-77
2023/01/30 02:49:47;;;;;;;67.97;30.75;;;;;;;;;;1036917;28;20504;-77
2023/01/30 02:50:27;;;;;;;78.43;34.08;;;;;;;;;;1038277;28;20026;-78
2023/01/30 02:51:00;;;;;;;77.47;32.83;;;;;;;;;;1036126;28;20045;-78
2023/01/30 02:51:34;;;;;;;75.50;31.85;;;;;;;;;;1037533;28;20033;-78
2023/01/30 02:52:05;;;;;;;71.35;32.83;;;;;;;;;;1037262;28;20022;-78
2023/01/30 02:52:36;;;;;;;69.40;32.88;;;;;;;;;;1037697;28;20025;-78
2023/01/30 02:53:07;;;;;;;65.75;31.63;;;;;;;;;;1037592;28;20489;-76
2023/01/30 02:53:38;;;;;;;77.30;32.20;;;;;;;;;;1039251;28;20033;-77
2023/01/30 02:54:11;;;;;;;76.38;32.88;;;;;;;;;;1038482;28;20085;-80
2023/01/30 02:54:42;;;;;;;59.08;29.38;;;;;;;;;;1037881;28;21175;-77
2023/01/30 02:55:23;;;;;;;68.80;30.05;;;;;;;;;;1039811;28;20071;-77
2023/01/30 02:55:53;;;;;;;55.75;27.83;;;;;;;;;;1039229;28;20025;-77
2023/01/30 02:56:24;;;;;;;54.95;26.33;;;;;;;;;;1039882;28;20036;-77
2023/01/30 02:56:58;;;;;;;63.58;29.92;;;;;;;;;;1039023;28;20030;-78
2023/01/30 02:57:29;;;;;;;58.83;29.83;;;;;;;;;;1037445;28;20017;-78
2023/01/30 02:58:01;;;;;;;61.78;29.27;;;;;;;;;;1039046;28;20022;-82
2023/01/30 02:58:35;;;;;;;72.00;30.60;;;;;;;;;;1038724;28;20029;-81
2023/01/30 02:59:05;;;;;;;69.57;31.55;;;;;;;;;;1036905;28;20017;-78
2023/01/30 02:59:41;;;;;;;67.78;29.45;;;;;;;;;;1040038;28;20393;-79
2023/01/30 03:00:13;;;;;;;73.65;30.58;;;;;;;;;;1035864;28;20629;-81
2023/01/30 03:00:47;;;;;;;77.13;35.42;;;;;;;;;;1035299;28;20437;-78
2023/01/30 03:01:43;;;;;;;82.28;32.17;;;;;;;;;;1037085;28;20025;-80
2023/01/30 03:02:23;;;;;;;65.07;30.73;;;;;;;;;;1035732;28;20022;-78
2023/01/30 03:03:06;;;;;;;78.90;35.33;;;;;;;;;;1037611;28;20496;-78
2023/01/30 03:03:46;;;;;;;75.15;37.78;;;;;;;;;;1037678;28;20091;-79
2023/01/30 03:04:48;;;;;;;96.05;44.35;;;;;;;;;;1173167;22;21643;-79
2023/01/30 03:05:18;;;;;;;101.85;40.47;;;;;;;;;;1048318;23;20139;-80
2023/01/30 03:05:51;;;;;;;106.22;45.92;;;;;;;;;;1053139;23;20119;-78
2023/01/30 03:07:18;;;;;;;105.63;52.33;;;;;;;;;;1048964;23;20251;-79
2023/01/30 03:07:55;;;;;;;88.20;40.75;;;;;;;;;;1041291;28;20516;-79
2023/01/30 03:08:37;;;;;;;105.35;44.45;;;;;;;;;;1041501;28;20112;-79
2023/01/30 03:09:59;;;;;;;79.88;37.42;;;;;;;;;;1052537;23;20083;-79
2023/01/30 03:10:38;;;;;;;96.68;41.10;;;;;;;;;;1045275;28;20021;-78
2023/01/30 03:11:10;;;;;;;83.90;40.50;;;;;;;;;;1046781;28;20028;-79
2023/01/30 03:12:07;;;;;;;102.95;46.15;;;;;;;;;;1047263;28;20044;-79
2023/01/30 03:12:47;;;;;;;106.78;43.78;;;;;;;;;;1029155;28;20030;-79
2023/01/30 03:13:34;;;;;;;122.72;52.00;;;;;;;;;;1034927;28;20422;-79
2023/01/30 03:14:05;;;;;;;109.68;45.63;;;;;;;;;;1037034;28;20095;-79
2023/01/30 03:14:41;;;;;;;118.72;53.83;;;;;;;;;;1036394;28;20115;-80
2023/01/30 03:15:28;;;;;;;126.28;57.30;;;;;;;;;;1040573;28;20112;-80
2023/01/30 03:16:04;;;;;;;120.85;52.75;;;;;;;;;;1040350;28;20103;-79
2023/01/30 03:16:38;;;;;;;110.65;49.97;;;;;;;;;;1038998;28;20032;-81
2023/01/30 03:17:11;;;;;;;114.90;51.67;;;;;;;;;;1038508;28;20141;-80
2023/01/30 03:17:44;;;;;;;112.10;50.33;;;;;;;;;;1036582;28;20112;-80
2023/01/30 03:18:16;;;;;;;100.70;47.58;;;;;;;;;;1039000;28;20436;-80
2023/01/30 03:18:47;;;;;;;105.47;49.47;;;;;;;;;;1040259;28;20443;-80
2023/01/30 03:19:18;;;;;;;125.43;44.58;;;;;;;;;;1043058;28;20033;-81
2023/01/30 03:20:19;;;;;;;111.43;44.37;;;;;;;;;;1043482;22;20061;-80
2023/01/30 03:20:50;;;;;;;106.40;41.28;;;;;;;;;;1036848;28;20026;-81
2023/01/30 03:21:21;;;;;;;119.63;43.30;;;;;;;;;;1037872;28;20029;-81
2023/01/30 03:21:51;;;;;;;121.05;45.33;;;;;;;;;;1041901;28;20366;-78
2023/01/30 03:22:22;;;;;;;107.22;49.30;;;;;;;;;;1040963;28;20023;-78
2023/01/30 03:22:54;;;;;;;110.35;48.00;;;;;;;;;;1036051;28;20081;-78
2023/01/30 03:23:24;;;;;;;102.75;45.50;;;;;;;;;;1038464;28;20022;-79
2023/01/30 03:23:55;;;;;;;133.73;47.58;;;;;;;;;;1032291;28;20402;-80